Wetterdaten: aktuell Freitag, 28.08.2015 03:51
Datum Zeit Temperatur Feuchte Luftdruck Regen Wind Richtung Richtung Taupunkt Windchill
28.08.2015 03:51 12,9 C 96 % 1013,6 hPa 0,0 l/m 0,0 km/h (0 Bft) - - 0 12,3 C 12,9 C
28.08.2015 02:51 13,0 C 96 % 1013,6 hPa 0,0 l/m 0,0 km/h (0 Bft) - - 0 12,4 C 13,0 C
28.08.2015 01:51 12,9 C 96 % 1012,6 hPa 0,0 l/m 0,0 km/h (0 Bft) - - 0 12,3 C 12,9 C
28.08.2015 00:51 12,8 C 95 % 1012,6 hPa 0,7 l/m 0,0 km/h (0 Bft) - - 0 12,0 C 12,8 C
27.08.2015 23:51 12,9 C 95 % 1011,6 hPa 2,2 l/m 0,0 km/h (0 Bft) - - 0 12,1 C 12,9 C
27.08.2015 22:51 12,9 C 94 % 1011,6 hPa 2,2 l/m 0,0 km/h (0 Bft) - - 0 12,0 C 12,9 C
27.08.2015 21:51 13,1 C 94 % 1011,6 hPa 2,2 l/m 0,0 km/h (0 Bft) - - 0 12,2 C 13,1 C
27.08.2015 20:51 13,2 C 94 % 1011,6 hPa 2,2 l/m 0,0 km/h (0 Bft) - - 0 12,3 C 13,2 C
27.08.2015 19:51 13,5 C 94 % 1011,5 hPa 2,9 l/m 0,0 km/h (0 Bft) - - 0 12,6 C 13,5 C
27.08.2015 18:51 13,6 C 93 % 1010,5 hPa 2,9 l/m 0,0 km/h (0 Bft) - - 0 12,5 C 13,6 C
27.08.2015 17:51 13,7 C 92 % 1011,5 hPa 2,9 l/m 0,0 km/h (0 Bft) - - 0 12,4 C 13,7 C
27.08.2015 16:51 14,1 C 92 % 1010,5 hPa 2,5 l/m 0,0 km/h (0 Bft) - - 0 12,8 C 14,1 C
27.08.2015 15:51 14,2 C 90 % 1010,5 hPa 2,2 l/m 0,0 km/h (0 Bft) - - 0 12,6 C 14,2 C
27.08.2015 14:51 15,4 C 90 % 1010,4 hPa 3,2 l/m 0,0 km/h (0 Bft) - - 0 13,8 C 15,4 C
27.08.2015 13:51 16,4 C 91 % 1010,3 hPa 6,5 l/m 0,0 km/h (0 Bft) - - 0 14,9 C 16,4 C
27.08.2015 12:51 17,5 C 88 % 1010,2 hPa 1,8 l/m 0,0 km/h (0 Bft) - - 0 15,5 C 17,5 C
27.08.2015 11:51 18,0 C 86 % 1010,2 hPa 0,7 l/m 0,0 km/h (0 Bft) - - 0 15,6 C 18,0 C
27.08.2015 10:51 17,9 C 84 % 1010,2 hPa 0,4 l/m 0,0 km/h (0 Bft) - - 0 15,2 C 17,9 C
27.08.2015 09:51 17,5 C 85 % 1010,2 hPa 0,7 l/m 0,0 km/h (0 Bft) - - 0 14,9 C 17,5 C
27.08.2015 08:51 17,9 C 86 % 1009,1 hPa 0,7 l/m 0,0 km/h (0 Bft) - - 0 15,5 C 17,9 C
27.08.2015 07:51 18,6 C 82 % 1009,1 hPa 0,0 l/m 0,0 km/h (0 Bft) - - 0 15,5 C 18,6 C
27.08.2015 06:51 19,4 C 77 % 1009,0 hPa 0,0 l/m 0,0 km/h (0 Bft) - - 0 15,3 C 19,4 C
27.08.2015 05:51 20,0 C 75 % 1008,0 hPa 0,0 l/m 0,0 km/h (0 Bft) - - 0 15,4 C 20,0 C
27.08.2015 04:51 19,7 C 74 % 1008,0 hPa 0,0 l/m 0,0 km/h (0 Bft) - - 0 14,9 C 19,7 C
27.08.2015 04:00 19,7 C 73 % 1008,0 hPa 0,0 l/m 0,0 km/h (0 Bft) - - 0 14,7 C 19,7 C
_ Min-Zeit 00:24 04:00 05:09 - 04:00 - - 22:15 00:24
Minimum _ 12,8 C 73 % 1007,9 hPa - 0,0 km/h (0 Bft) - - 12,0 C 12,8 C
_ Max-Zeit 05:09 01:33 03:21 12:42 04:00 - - 12:30 05:09
Maximum _ 20,1 C 96 % 1013,6 hPa 1,1 l/m 0,0 km/h
- - (0 Bft)
- - 16,0 C 20,1 C
Durchschnitt _ 15,9 C 88 % 1010,5 hPa #36,7 l/m 0,0 km/h (0 Bft) - - - 13,7 C 15,9 C